createdAt,value
2022-12-25T00:00:28.920Z,92.53
2022-12-25T00:03:22.753Z,92.40
2022-12-25T00:06:06.223Z,92.43
2022-12-25T00:08:39.521Z,92.58
2022-12-25T00:11:11.991Z,92.65
2022-12-25T00:13:59.567Z,92.88
2022-12-25T00:16:42.052Z,93.00
2022-12-25T00:19:19.457Z,92.81
2022-12-25T00:21:58.388Z,92.72
2022-12-25T00:24:49.220Z,92.88
2022-12-25T00:27:31.052Z,93.05
2022-12-25T00:30:15.434Z,93.00
2022-12-25T00:32:47.513Z,92.84
2022-12-25T00:35:19.396Z,93.10
2022-12-25T00:37:58.390Z,93.21
2022-12-25T00:40:46.876Z,93.22
2022-12-25T00:43:28.247Z,93.14
2022-12-25T00:45:58.795Z,93.28
2022-12-25T00:48:38.883Z,93.28
2022-12-25T00:51:10.827Z,93.45
2022-12-25T00:53:46.751Z,93.33
2022-12-25T00:56:15.429Z,93.14
2022-12-25T00:58:47.157Z,93.12
2022-12-25T01:01:20.928Z,93.19
2022-12-25T01:04:00.137Z,93.26
2022-12-25T01:06:32.511Z,93.08
2022-12-25T01:09:26.666Z,93.10
2022-12-25T01:12:08.581Z,93.16
2022-12-25T01:14:37.787Z,92.73
2022-12-25T01:17:08.939Z,92.97
2022-12-25T01:19:41.582Z,93.45
2022-12-25T01:22:15.648Z,93.69
2022-12-25T01:24:45.354Z,94.05
2022-12-25T01:27:16.736Z,94.10
2022-12-25T01:29:53.060Z,93.87
2022-12-25T01:32:22.044Z,93.86
2022-12-25T01:34:56.215Z,93.94
2022-12-25T01:37:28.327Z,93.96
2022-12-25T01:40:17.635Z,93.97
2022-12-25T01:42:54.047Z,94.06
2022-12-25T01:45:37.915Z,94.07
2022-12-25T01:48:14.772Z,94.30
2022-12-25T01:50:47.257Z,94.28
2022-12-25T01:53:18.682Z,94.15
2022-12-25T01:55:50.886Z,94.17
2022-12-25T01:58:22.039Z,94.16
2022-12-25T02:00:54.023Z,93.99
2022-12-25T02:03:34.033Z,94.00
2022-12-25T02:06:17.522Z,93.99
2022-12-25T02:08:57.983Z,94.00
2022-12-25T02:11:45.167Z,94.02
2022-12-25T02:14:14.205Z,93.81
2022-12-25T02:17:09.867Z,93.88
2022-12-25T02:20:17.229Z,94.13
2022-12-25T02:23:04.322Z,94.06
2022-12-25T02:25:58.913Z,94.05
2022-12-25T02:28:32.437Z,94.28
2022-12-25T02:31:10.625Z,94.31
2022-12-25T02:34:04.312Z,94.02
2022-12-25T02:36:50.048Z,94.06
2022-12-25T02:40:04.489Z,94.47
2022-12-25T02:43:13.175Z,94.29
2022-12-25T02:46:39.257Z,94.33
2022-12-25T02:49:38.399Z,94.02
2022-12-25T02:52:42.011Z,94.10
2022-12-25T02:55:32.245Z,94.14
2022-12-25T02:58:31.457Z,94.24
2022-12-25T03:01:35.133Z,94.30
2022-12-25T03:04:33.152Z,94.30
2022-12-25T03:07:14.360Z,94.37
2022-12-25T03:10:10.014Z,94.25
2022-12-25T03:12:49.797Z,93.89
2022-12-25T03:15:40.922Z,93.67
2022-12-25T03:18:17.916Z,93.70
2022-12-25T03:21:07.207Z,93.62
2022-12-25T03:24:05.542Z,93.51
2022-12-25T03:26:55.644Z,93.42
2022-12-25T03:41:49.542Z,91.46
2022-12-25T03:44:56.788Z,91.40
2022-12-25T03:47:54.096Z,91.80
2022-12-25T03:50:52.795Z,91.85
2022-12-25T03:54:02.125Z,92.15
2022-12-25T03:57:02.575Z,92.23
2022-12-25T03:59:55.043Z,92.29
2022-12-25T04:02:58.961Z,92.32
2022-12-25T04:05:53.067Z,92.31
2022-12-25T04:08:57.161Z,92.25
2022-12-25T04:12:07.002Z,92.06
2022-12-25T04:15:07.992Z,91.87
2022-12-25T04:17:58.804Z,91.70
2022-12-25T04:20:59.822Z,91.76
2022-12-25T04:23:49.605Z,91.87
2022-12-25T04:26:39.878Z,92.03
2022-12-25T04:29:35.545Z,91.59
2022-12-25T04:32:37.473Z,91.64
2022-12-25T04:35:30.710Z,91.79
2022-12-25T04:38:13.653Z,92.03
2022-12-25T04:40:55.785Z,92.29
2022-12-25T04:43:30.475Z,91.71
2022-12-25T04:46:08.021Z,91.86
2022-12-25T04:48:43.032Z,91.84
2022-12-25T04:51:27.294Z,91.04
2022-12-25T04:54:02.586Z,90.89
2022-12-25T04:56:43.357Z,91.20
2022-12-25T04:59:25.023Z,91.66
2022-12-25T05:02:06.145Z,91.33
2022-12-25T05:04:38.601Z,91.72
2022-12-25T05:07:31.799Z,91.98
2022-12-25T05:10:10.845Z,91.73
2022-12-25T05:12:48.688Z,91.94
2022-12-25T05:15:23.838Z,91.92
2022-12-25T05:18:10.942Z,91.51
2022-12-25T05:20:54.524Z,91.61
2022-12-25T05:23:37.829Z,91.81
2022-12-25T05:26:24.556Z,91.97
2022-12-25T05:29:17.896Z,91.74
2022-12-25T05:32:04.107Z,91.89
2022-12-25T21:54:15.627Z,86.06
2022-12-25T21:57:04.756Z,85.87
2022-12-25T21:59:47.582Z,85.72
2022-12-25T22:02:26.001Z,85.65
2022-12-25T22:05:35.303Z,85.61
2022-12-25T22:08:08.844Z,85.64
2022-12-25T22:10:42.539Z,85.65
2022-12-25T22:13:35.389Z,85.62
2022-12-25T22:16:41.590Z,85.70
2022-12-25T22:19:34.366Z,85.64
2022-12-25T22:22:06.308Z,85.48
2022-12-25T22:24:35.342Z,85.41
2022-12-25T22:27:12.850Z,85.41
2022-12-25T22:29:51.216Z,85.46
2022-12-25T22:32:22.166Z,85.45
2022-12-25T22:35:11.825Z,85.48
2022-12-25T22:37:54.257Z,85.54
2022-12-25T22:40:31.004Z,85.39
2022-12-25T22:43:19.805Z,85.44
2022-12-25T22:46:02.479Z,85.28
2022-12-25T22:48:34.192Z,85.39
2022-12-25T22:51:23.152Z,85.44
2022-12-25T22:54:03.968Z,85.41
2022-12-25T22:56:45.219Z,85.48
2022-12-25T22:59:20.629Z,85.48
2022-12-25T23:02:03.196Z,85.34
2022-12-25T23:04:52.205Z,85.22
2022-12-25T23:07:41.476Z,85.13
2022-12-25T23:10:23.133Z,85.34
2022-12-25T23:13:20.122Z,85.32
2022-12-25T23:16:13.837Z,85.53
2022-12-25T23:19:04.017Z,85.65
2022-12-25T23:22:00.672Z,85.77
2022-12-25T23:25:07.592Z,85.81
2022-12-25T23:27:56.509Z,85.88
2022-12-25T23:30:36.537Z,86.01
2022-12-25T23:33:25.376Z,86.09
2022-12-25T23:36:08.641Z,85.94
2022-12-25T23:38:46.911Z,85.99
2022-12-25T23:41:35.733Z,86.05
2022-12-25T23:44:07.019Z,86.07
2022-12-25T23:46:40.359Z,86.09
2022-12-25T23:49:09.814Z,86.27
2022-12-25T23:51:49.286Z,86.34
2022-12-25T23:54:33.622Z,86.22
2022-12-25T23:57:12.285Z,86.24
2022-12-25T23:59:52.109Z,86.32
